Latest Coastal Weather Observations for Yanakie

IDV60701

Issued at 11:52 am EST Tuesday 27 June 2017 (issued every 10 minutes, with the page automatically refreshed every 10 minutes)

About coastal observations | Map of coastal stations | Coastal observations for VIC | Marine services | Other Formats
Station Details ID: 085301 Name: YANAKIE Lat: -38.81 Lon: 146.19 Height: 13.3 m
Data from the previous 72 hours. | See also: Recent months at Yanakie
Date/Time
EST
Temp
°C
Wind Pressure Rain since
9am
mm
Weather Cloud Vis
km
Sea
Height
m
Swell
Dir  Spd
kts
Gust
kts
hPa Trend Height
m
Period
s
Dir
27/11:30am 12.9 NNW 4 6 1025.2 - 0.0 - - - - - - -
27/11:00am 12.8 NNW 4 6 1025.5 - 0.0 - - - - - - -
27/10:30am 12.3 N 4 6 1025.8 - 0.0 - - - - - - -
27/10:00am 11.0 N 3 5 1025.8 - 0.0 - - - - - - -
27/09:30am 9.7 N 3 4 1025.9 - 0.0 - - - - - - -
27/09:00am 8.7 NNE 3 5 1025.8 - 0.2 - - - - - - -
27/08:30am 7.5 N 3 4 1025.8 - 0.2 - - - - - - -
27/08:00am 6.9 NNE 4 5 1025.6 - 0.2 - - - - - - -
27/07:30am 6.7 NNE 5 5 1025.3 - 0.2 - - - - - - -
27/07:00am 6.6 N 3 4 1025.4 - 0.2 - - - - - - -
27/06:30am 4.3 N 1 1 1025.4 - 0.2 - - - - - - -
27/06:00am 4.4 N 1 2 1025.4 - 0.2 - - - - - - -
27/05:30am 5.7 N 2 3 1025.3 - 0.2 - - - - - - -
27/05:00am 5.5 N 2 3 1025.5 - 0.2 - - - - - - -
27/04:30am 6.0 NNW 3 3 1025.5 - 0.2 - - - - - - -
27/04:00am 5.5 NNW 3 3 1025.5 - 0.2 - - - - - - -
27/03:30am - NNW 1 3 1025.5 - 0.2 - - - - - - -
27/03:00am - N 1 2 1025.4 - 0.2 - - - - - - -
27/02:30am 3.7 CALM 0 0 1025.5 - 0.2 - - - - - - -
27/02:00am 4.5 NNW 1 2 1025.2 - 0.2 - - - - - - -
27/01:30am - NNW 1 2 1025.1 - 0.2 - - - - - - -
27/01:00am - NNW 2 2 1024.9 - 0.2 - - - - - - -
27/12:30am - NNW 3 5 1025.2 - 0.2 - - - - - - -
27/12:00am - NNW 2 2 1025.4 - 0.0 - - - - - - -
 
Date/Time
EST
Temp
°C
Wind Pressure Rain since
9am
mm
Weather Cloud Vis
km
Sea
Height
m
Swell
Dir  Spd
kts
Gust
kts
hPa Trend Height
m
Period
s
Dir
26/11:30pm - N 3 3 1025.7 - 0.0 - - - - - - -
26/11:00pm - NW 3 5 1025.6 - 0.0 - - - - - - -
26/10:30pm 5.6 NW 4 5 1025.6 - 0.0 - - - - - - -
26/10:00pm - NW 4 5 1025.5 - 0.0 - - - - - - -
26/09:30pm - NW 5 7 1025.5 - 0.0 - - - - - - -
26/09:00pm - NW 3 4 1025.7 - 0.0 - - - - - - -
26/08:30pm - WNW 2 3 1025.6 - 0.0 - - - - - - -
26/08:00pm 5.3 NW 4 5 1025.5 - 0.0 - - - - - - -
26/07:30pm - NW 5 5 1025.2 - 0.0 - - - - - - -
26/07:00pm 6.2 WNW 5 5 1025.0 - 0.0 - - - - - - -
26/06:30pm 6.8 WNW 4 5 1024.7 - 0.0 - - - - - - -
26/06:00pm - WNW 6 7 1024.4 - 0.0 - - - - - - -
26/05:30pm - WNW 4 5 1024.2 - 0.0 - - - - - - -
26/05:00pm - W 6 8 1024.1 - 0.0 - - - - - - -
26/04:30pm - WNW 4 5 1023.8 - 0.0 - - - - - - -
26/04:00pm - SW 8 11 1023.7 - 0.0 - - - - - - -
26/03:30pm - WSW 9 13 1023.6 - 0.0 - - - - - - -
26/03:00pm - WSW 8 11 1023.3 - 0.0 - - - - - - -
26/02:30pm - W 9 14 1022.9 - 0.0 - - - - - - -
26/02:00pm - WSW 10 13 1022.8 - 0.0 - - - - - - -
26/01:30pm - WSW 10 14 1022.6 - 0.0 - - - - - - -
26/01:00pm 13.1 WSW 11 13 1022.7 - 0.0 - - - - - - -
26/12:30pm 11.6 WSW 9 12 1022.7 - 0.0 - - - - - - -
26/12:00pm 13.3 SW 10 13 1023.0 - 0.0 - - - - - - -
26/11:30am 12.7 SW 10 15 1023.0 - 0.0 - - - - - - -
26/11:00am 11.5 W 10 14 1023.0 - 0.0 - - - - - - -
26/10:30am 11.7 WSW 8 11 1022.9 - 0.0 - - - - - - -
26/10:00am 12.4 SW 8 13 1022.5 - 0.0 - - - - - - -
26/09:30am 12.0 SW 8 12 1022.0 - 0.0 - - - - - - -
26/09:00am 10.7 WSW 9 11 1021.6 - 10.0 - - - - - - -
26/08:30am 10.9 WSW 9 11 1021.1 - 10.0 - - - - - - -
26/08:00am 10.7 WSW 11 14 1020.6 - 10.0 - - - - - - -
26/07:30am 9.6 W 7 14 1020.4 - 10.0 - - - - - - -
26/07:00am 10.1 WSW 10 14 1019.9 - 10.0 - - - - - - -
26/06:30am 8.7 WNW 6 8 1019.6 - 10.0 - - - - - - -
26/06:00am 9.1 WNW 7 8 1019.1 - 10.0 - - - - - - -
26/05:30am 8.9 WNW 7 9 1018.6 - 10.0 - - - - - - -
26/05:00am 8.2 W 7 9 1018.4 - 10.0 - - - - - - -
26/04:30am 7.8 WNW 7 8 1018.2 - 10.0 - - - - - - -
26/04:00am 8.2 WNW 8 9 1018.0 - 10.0 - - - - - - -
26/03:30am 8.1 WNW 7 9 1018.0 - 10.0 - - - - - - -
26/03:00am 9.6 W 8 11 1017.8 - 10.0 Recent precip. - - - - - -
26/02:30am 9.9 WNW 12 20 1017.7 - 9.8 - - - - - - -
26/02:00am 9.3 WNW 10 14 1017.3 - 9.8 - - - - - - -
26/01:30am 9.3 W 7 10 1017.1 - 9.8 - - - - - - -
26/01:00am 9.6 WNW 11 17 1017.0 - 9.8 - - - - - - -
26/12:30am 9.3 WNW 9 12 1016.8 - 9.6 - - - - - - -
26/12:00am 9.6 WNW 7 10 1016.7 - 9.6 Recent precip. - - - - - -
 
Date/Time
EST
Temp
°C
Wind Pressure Rain since
9am
mm
Weather Cloud Vis
km
Sea
Height
m
Swell
Dir  Spd
kts
Gust
kts
hPa Trend Height
m
Period
s
Dir
25/11:30pm 9.8 W 12 16 1016.7 - 9.4 - - - - - - -
25/11:00pm 9.1 WNW 9 11 1016.3 - 9.2 - - - - - - -
25/10:30pm 9.6 WNW 9 11 1016.2 - 9.2 - - - - - - -
25/10:00pm 9.9 WNW 9 12 1015.8 - 9.2 - - - - - - -
25/09:30pm 9.9 WNW 9 12 1015.5 - 9.2 - - - - - - -
25/09:00pm 10.2 WNW 8 11 1015.2 - 9.2 Rain - - - - - -
25/08:30pm 10.1 WNW 11 15 1014.8 - 7.6 - - - - - - -
25/08:00pm 10.3 WNW 13 17 1014.4 - 6.8 - - - - - - -
25/07:30pm 10.4 WNW 15 20 1014.2 - 6.8 - - - - - - -
25/07:00pm 10.4 WNW 14 23 1013.7 - 5.6 - - - - - - -
25/06:30pm 9.9 WNW 14 18 1013.5 - 4.8 - - - - - - -
25/06:00pm 9.9 WNW 15 20 1013.3 - 4.4 Rain - - - - - -
25/05:30pm 10.4 WNW 15 21 1012.6 - 0.4 - - - - - - -
25/05:00pm 11.6 WNW 19 28 1011.9 - 0.0 - - - - - - -
25/04:30pm 11.7 WNW 19 25 1011.7 - 0.0 - - - - - - -
25/04:09pm 11.9 NW 17 29 1011.8 - 0.0 - - - - - - -
25/04:00pm 11.8 WNW 18 25 1011.8 - 0.0 - - - - - - -
25/03:30pm 11.8 NW 16 22 1011.9 - 0.0 - - - - - - -
25/03:00pm 11.9 NW 18 27 1011.8 - 0.0 - - - - - - -
25/02:30pm 11.7 NW 18 26 1012.1 - 0.0 - - - - - - -
25/02:00pm 11.8 NW 21 34 1012.1 - 0.0 - - - - - - -
25/01:57pm 11.9 NW 20 34 1012.1 - 0.0 - - - - - - -
25/01:30pm 12.1 NW 18 27 1012.4 - 0.0 - - - - - - -
25/01:18pm 11.8 NW 22 33 1012.6 - 0.0 - - - - - - -
25/01:00pm 11.8 NW 22 31 1012.7 - 0.0 - - - - - - -
25/12:30pm 11.9 WNW 22 33 1012.6 - 0.0 - - - - - - -
25/12:14pm 12.0 NW 22 32 1012.8 - 0.0 - - - - - - -
25/12:00pm 11.5 NW 24 33 1012.8 - 0.0 - - - - - - -
25/11:30am 11.9 NW 22 32 1013.3 - 0.0 - - - - - - -
25/11:16am 11.3 NW 24 35 1013.6 - 0.0 - - - - - - -
25/11:00am 11.6 NW 22 29 1013.7 - 0.0 - - - - - - -
25/10:30am 11.3 NW 21 31 1014.1 - 0.0 - - - - - - -
25/10:08am 10.8 NW 20 32 1014.1 - 0.0 - - - - - - -
25/10:00am 10.7 NW 19 26 1014.2 - 0.0 - - - - - - -
25/09:30am 10.0 NW 16 23 1014.4 - 0.0 - - - - - - -
25/09:00am 9.2 NW 14 19 1014.3 - 0.4 - - - - - - -
25/08:30am 9.0 NW 13 20 1014.3 - 0.4 - - - - - - -
25/08:00am 8.3 NW 13 18 1014.3 - 0.4 - - - - - - -
25/07:30am 8.4 NW 13 18 1014.1 - 0.4 - - - - - - -
25/07:00am 8.3 NW 12 15 1014.1 - 0.4 - - - - - - -
25/06:30am 7.9 NW 12 17 1014.0 - 0.4 - - - - - - -
25/06:00am 8.0 NW 11 16 1013.9 - 0.4 - - - - - - -
25/05:30am 8.0 NW 11 14 1013.9 - 0.4 - - - - - - -
25/05:00am 7.4 NW 10 14 1014.1 - 0.4 - - - - - - -
25/04:30am 8.1 NW 9 12 1014.0 - 0.4 - - - - - - -
25/04:00am 8.1 NW 10 14 1014.3 - 0.4 - - - - - - -
25/03:30am 7.9 NNW 12 16 1014.5 - 0.4 - - - - - - -
25/03:00am 8.0 NNW 14 18 1014.6 - 0.4 - - - - - - -
25/02:30am 7.4 NW 8 11 1015.0 - 0.4 - - - - - - -
25/02:00am 7.8 NNW 10 13 1015.1 - 0.4 - - - - - - -
25/01:30am 7.6 NNW 10 13 1015.0 - 0.4 - - - - - - -
25/01:00am 7.5 NW 10 15 1015.2 - 0.4 - - - - - - -
25/12:30am 7.1 NW 9 12 1015.2 - 0.4 - - - - - - -
25/12:00am 7.5 NW 10 13 1015.3 - 0.4 - - - - - - -
 
Date/Time
EST
Temp
°C
Wind Pressure Rain since
9am
mm
Weather Cloud Vis
km
Sea
Height
m
Swell
Dir  Spd
kts
Gust
kts
hPa Trend Height
m
Period
s
Dir
24/11:30pm 7.6 NW 9 13 1015.6 - 0.4 - - - - - - -
24/11:00pm 7.2 NW 9 12 1015.9 - 0.4 - - - - - - -
24/10:30pm 6.6 NW 7 9 1016.2 - 0.4 - - - - - - -
24/10:00pm 6.7 NW 5 7 1016.3 - 0.4 - - - - - - -
24/09:30pm 7.9 NW 10 15 1016.3 - 0.4 - - - - - - -
24/09:00pm 7.7 NW 12 15 1016.5 - 0.4 - - - - - - -
24/08:30pm 7.1 NW 7 12 1016.7 - 0.4 - - - - - - -
24/08:00pm 7.1 NW 7 10 1016.6 - 0.4 - - - - - - -
24/07:30pm 7.2 WNW 6 9 1016.6 - 0.4 - - - - - - -
24/07:00pm 7.5 NW 7 10 1016.5 - 0.4 - - - - - - -
24/06:30pm 7.0 NW 6 7 1016.5 - 0.4 - - - - - - -
24/06:00pm 6.5 NW 5 8 1016.4 - 0.4 - - - - - - -
24/05:30pm 7.0 NW 6 7 1016.3 - 0.4 - - - - - - -
24/05:00pm 8.5 WNW 7 10 1016.4 - 0.4 - - - - - - -
24/04:30pm 8.3 NW 8 10 1016.3 - 0.4 - - - - - - -
24/04:00pm 9.3 NW 7 9 1016.1 - 0.4 - - - - - - -
24/03:30pm 9.1 WNW 14 21 1016.3 - 0.4 - - - - - - -
24/03:00pm 12.0 WSW 12 15 1016.0 - 0.0 - - - - - - -
24/02:30pm 12.0 W 14 18 1015.9 - 0.0 - - - - - - -
24/02:00pm 11.1 W 12 15 1015.9 - 0.0 - - - - - - -
24/01:30pm 11.9 W 13 18 1015.9 - 0.0 - - - - - - -
24/01:00pm 11.6 W 10 13 1016.1 - 0.0 - - - - - - -
24/12:30pm 11.5 WSW 12 15 1016.4 - 0.0 - - - - - - -
24/12:00pm 10.6 W 14 18 1016.6 - 0.0 - - - - - - -

Other Formats:

Comma delimited format used in spreadsheet applications
http://www.bom.gov.au/fwo/IDV60701/IDV60701.94911.axf

JavaScript Object Notation format (JSON) in row-major order
http://www.bom.gov.au/fwo/IDV60701/IDV60701.94911.json